Time;durP1;ratioP1;P1;durP2;ratioP2;P2;SDS_P1;SDS_P2;PMS_P1;PMS_P2;Temp;Humidity;BMP_temperature;BMP_pressure;BME280_temperature;BME280_humidity;BME280_pressure;Samples;Min_cycle;Max_cycle;Signal;HPM_P1;HPM_P2
2021/12/27 00:01:00;;;;;;;3.60;1.92;;;;;;;-11.25;60.53;99012.81;5074375;28;20090;-65
2021/12/27 00:03:26;;;;;;;4.95;1.98;;;;;;;-11.30;60.34;99027.47;5073742;28;20028;-63
2021/12/27 00:05:53;;;;;;;3.65;1.77;;;;;;;-11.35;60.19;99030.06;5074106;28;20161;-64
2021/12/27 00:08:18;;;;;;;4.63;2.22;;;;;;;-11.44;61.01;99024.97;5074239;28;20184;-65
2021/12/27 00:10:44;;;;;;;4.63;1.70;;;;;;;-11.50;60.65;99032.72;5074061;28;20470;-65
2021/12/27 00:13:10;;;;;;;4.53;1.98;;;;;;;-11.56;60.97;99023.28;5074182;28;20032;-66
2021/12/27 00:15:35;;;;;;;3.10;1.65;;;;;;;-11.54;61.08;99042.22;5073750;28;20121;-64
2021/12/27 00:18:01;;;;;;;4.03;1.80;;;;;;;-11.51;61.07;99051.66;5074277;28;20028;-65
2021/12/27 00:20:27;;;;;;;3.30;1.83;;;;;;;-11.56;60.84;99038.78;5073885;28;20386;-65
2021/12/27 00:22:53;;;;;;;4.43;2.10;;;;;;;-11.53;61.04;99043.94;5073579;28;20028;-65
2021/12/27 00:25:20;;;;;;;3.05;1.48;;;;;;;-11.50;61.00;99051.66;5073466;28;20031;-64
2021/12/27 00:27:46;;;;;;;3.55;1.73;;;;;;;-11.46;60.81;99061.13;5074043;28;20380;-65
2021/12/27 00:30:13;;;;;;;5.03;2.55;;;;;;;-11.45;60.83;99055.09;5073909;28;20486;-64
2021/12/27 00:32:40;;;;;;;3.60;1.85;;;;;;;-11.53;60.98;99064.59;5073807;28;20034;-66
2021/12/27 00:35:08;;;;;;;4.00;2.00;;;;;;;-11.55;61.40;99066.31;5072193;28;20070;-65
2021/12/27 00:37:34;;;;;;;4.28;2.03;;;;;;;-11.58;61.09;99051.69;5073703;28;20033;-66
2021/12/27 00:40:00;;;;;;;7.75;1.85;;;;;;;-11.50;61.09;99077.50;5073778;28;20366;-65
2021/12/27 00:42:25;;;;;;;5.10;1.80;;;;;;;-11.41;60.88;99067.13;5073356;28;20031;-63
2021/12/27 00:44:51;;;;;;;4.00;1.98;;;;;;;-11.33;60.88;99067.09;5073111;28;20024;-65
2021/12/27 00:47:16;;;;;;;4.78;2.00;;;;;;;-11.30;60.57;99046.41;5073533;28;20056;-65
2021/12/27 00:49:42;;;;;;;4.80;2.10;;;;;;;-11.20;60.72;99061.88;5073648;28;20044;-64
2021/12/27 00:52:08;;;;;;;6.50;2.38;;;;;;;-11.16;60.27;99053.25;5073155;28;20032;-65
2021/12/27 00:54:34;;;;;;;5.28;1.85;;;;;;;-11.20;60.50;99054.97;5072418;28;20476;-65
2021/12/27 00:56:59;;;;;;;4.20;2.00;;;;;;;-11.30;60.38;99071.41;5073454;28;20119;-65
2021/12/27 00:59:25;;;;;;;4.05;2.10;;;;;;;-11.41;60.68;99072.28;5073027;28;20043;-65
2021/12/27 01:01:51;;;;;;;3.53;1.80;;;;;;;-11.50;61.00;99082.66;5072698;28;20031;-66
2021/12/27 01:04:16;;;;;;;3.83;2.15;;;;;;;-11.58;61.08;99082.69;5072973;28;20042;-65
2021/12/27 01:06:41;;;;;;;6.65;2.30;;;;;;;-11.62;61.50;99080.09;5072796;28;20024;-63
2021/12/27 01:09:08;;;;;;;4.60;1.92;;;;;;;-11.57;61.84;99083.56;5073041;28;20432;-65
2021/12/27 01:14:40;;;;;;;5.85;2.40;;;;;;;-11.32;61.36;99096.41;5063844;28;20048;-64
2021/12/27 01:17:06;;;;;;;5.07;1.92;;;;;;;-11.23;61.43;99091.19;5072960;28;20025;-65
2021/12/27 01:19:32;;;;;;;5.20;2.17;;;;;;;-11.05;61.18;99097.16;5072263;28;20047;-67
2021/12/27 01:21:57;;;;;;;4.38;2.05;;;;;;;-10.97;60.68;99092.78;5072585;28;20082;-64
2021/12/27 01:24:23;;;;;;;4.53;2.25;;;;;;;-10.89;60.42;99098.75;5072678;28;20032;-66
2021/12/27 01:26:48;;;;;;;4.00;2.20;;;;;;;-10.77;60.44;99105.59;5070533;28;20461;-65
2021/12/27 01:29:14;;;;;;;3.83;1.92;;;;;;;-10.74;60.24;99109.91;5072859;28;20466;-65
2021/12/27 01:31:39;;;;;;;3.67;1.92;;;;;;;-10.63;60.36;99105.50;5072683;28;20108;-66
2021/12/27 01:34:05;;;;;;;4.05;2.20;;;;;;;-10.77;60.05;99068.53;5070857;28;20025;-64
2021/12/27 01:36:33;;;;;;;6.80;2.38;;;;;;;-10.51;60.16;99108.91;5072396;28;20460;-65
2021/12/27 01:39:00;;;;;;;4.63;1.88;;;;;;;-10.48;60.07;99111.47;5072574;28;20031;-65
2021/12/27 01:41:25;;;;;;;4.75;2.17;;;;;;;-10.43;60.16;99102.81;5072062;28;20028;-65
2021/12/27 01:43:52;;;;;;;5.05;2.30;;;;;;;-10.64;60.01;99074.50;5072211;28;20025;-64
2021/12/27 01:46:20;;;;;;;5.03;2.35;;;;;;;-10.44;60.37;99108.00;5072537;28;20489;-63
2021/12/27 01:48:54;;;;;;;4.90;2.22;;;;;;;-10.36;59.76;99113.09;5071803;28;20123;-65
2021/12/27 01:51:22;;;;;;;4.83;2.40;;;;;;;-10.41;60.24;99113.13;5071995;28;20032;-65
2021/12/27 01:53:48;;;;;;;4.50;2.05;;;;;;;-10.39;60.23;99109.66;5071156;28;20333;-65
2021/12/27 01:56:16;;;;;;;6.55;2.40;;;;;;;-10.36;60.30;99133.78;5072122;28;20033;-65
2021/12/27 01:58:42;;;;;;;6.18;2.03;;;;;;;-10.32;60.00;99131.19;5073589;28;20250;-64
2021/12/27 02:01:10;;;;;;;4.57;2.55;;;;;;;-10.26;60.16;99135.44;5072893;28;20082;-66
2021/12/27 02:03:38;;;;;;;5.25;2.30;;;;;;;-10.33;60.25;99129.47;5072202;28;20056;-66
2021/12/27 02:06:05;;;;;;;5.25;2.35;;;;;;;-10.32;59.95;99144.13;5070967;28;20090;-65
2021/12/27 02:08:32;;;;;;;6.10;2.60;;;;;;;-10.30;59.95;99132.03;5055171;28;20056;-64
2021/12/27 02:10:57;;;;;;;5.60;2.72;;;;;;;-10.20;59.82;99134.53;5071816;28;20025;-65
2021/12/27 02:13:23;;;;;;;4.20;2.33;;;;;;;-10.29;60.16;99136.34;5071912;28;20085;-64
2021/12/27 02:15:49;;;;;;;4.47;2.45;;;;;;;-10.31;60.43;99148.44;5071710;28;20021;-63
2021/12/27 02:18:15;;;;;;;4.57;2.60;;;;;;;-10.37;60.47;99125.16;5071192;28;20035;-64
2021/12/27 02:20:42;;;;;;;4.95;2.67;;;;;;;-10.30;60.39;99139.78;5071818;28;20020;-64
2021/12/27 02:23:15;;;;;;;5.75;2.30;;;;;;;-10.28;60.32;99150.13;5072216;28;20098;-64
2021/12/27 02:25:45;;;;;;;4.50;2.25;;;;;;;-10.42;60.48;99122.66;5070640;28;20051;-64
2021/12/27 02:28:12;;;;;;;4.55;2.22;;;;;;;-10.25;60.08;99142.31;5071711;28;20036;-65
2021/12/27 02:30:41;;;;;;;6.63;2.60;;;;;;;-10.23;59.95;99146.63;5071366;28;20105;-65
2021/12/27 02:33:08;;;;;;;6.13;2.38;;;;;;;-10.16;60.09;99155.22;5071867;28;20052;-65
2021/12/27 02:35:44;;;;;;;4.03;2.20;;;;;;;-10.06;60.11;99147.38;5070986;28;20025;-65
2021/12/27 02:38:12;;;;;;;5.55;2.33;;;;;;;-10.07;59.49;99156.00;5071288;28;20040;-65
2021/12/27 02:40:39;;;;;;;4.82;2.58;;;;;;;-10.01;59.85;99169.78;5071287;28;20032;-66
2021/12/27 02:43:10;;;;;;;7.68;2.17;;;;;;;-9.93;59.69;99161.09;5071790;28;20103;-64
2021/12/27 02:45:44;;;;;;;5.43;2.60;;;;;;;-9.85;59.68;99159.31;5071108;28;20116;-64
2021/12/27 02:48:12;;;;;;;5.43;2.87;;;;;;;-9.84;59.68;99171.38;5071127;28;20097;-64
2021/12/27 02:50:38;;;;;;;5.50;2.50;;;;;;;-9.77;59.66;99174.75;5071120;28;20111;-64
2021/12/27 02:53:06;;;;;;;3.35;2.05;;;;;;;-9.75;59.61;99186.84;5071414;28;20056;-66
2021/12/27 02:55:33;;;;;;;5.80;2.95;;;;;;;-9.75;59.71;99186.84;5070706;28;20036;-64
2021/12/27 02:57:58;;;;;;;4.05;2.38;;;;;;;-9.80;59.80;99180.84;5070709;28;20111;-65
2021/12/27 03:00:40;;;;;;;6.40;2.60;;;;;;;-9.73;59.24;99194.63;5070749;28;20389;-64
2021/12/27 03:03:07;;;;;;;5.30;2.65;;;;;;;-9.80;59.40;99192.06;5070440;28;20037;-64
2021/12/27 03:05:33;;;;;;;5.97;2.53;;;;;;;-9.83;59.43;99191.25;5070935;28;20033;-65
2021/12/27 03:07:59;;;;;;;4.35;2.20;;;;;;;-9.91;59.75;99188.69;5070712;28;20555;-65
2021/12/27 03:10:31;;;;;;;4.75;2.60;;;;;;;-9.97;60.06;99194.78;5070629;28;20447;-64
2021/12/27 03:13:01;;;;;;;8.27;3.00;;;;;;;-9.90;60.08;99199.91;5070586;28;20017;-64
2021/12/27 03:15:27;;;;;;;4.80;2.55;;;;;;;-9.90;60.04;99207.69;5070529;28;20028;-65
2021/12/27 03:17:54;;;;;;;5.78;2.90;;;;;;;-9.93;60.28;99202.53;5070637;28;20128;-66
2021/12/27 03:20:23;;;;;;;5.57;2.78;;;;;;;-9.97;60.26;99205.13;5070552;28;20501;-64
2021/12/27 03:22:49;;;;;;;6.80;2.53;;;;;;;-9.87;60.36;99224.06;5069414;28;20017;-65
2021/12/27 03:25:21;;;;;;;5.32;2.72;;;;;;;-9.81;60.20;99225.75;5070787;28;20090;-65
2021/12/27 03:27:49;;;;;;;8.27;3.15;;;;;;;-9.76;60.06;99224.00;5070460;28;20471;-65
2021/12/27 03:30:23;;;;;;;5.93;2.70;;;;;;;-9.69;59.98;99225.66;5070491;28;20037;-64
2021/12/27 03:32:49;;;;;;;5.28;2.85;;;;;;;-9.68;59.73;99232.56;5070963;28;20078;-66
2021/12/27 03:35:18;;;;;;;7.20;2.85;;;;;;;-9.67;59.69;99236.84;5070676;28;20040;-67
2021/12/27 03:37:47;;;;;;;9.25;2.97;;;;;;;-9.58;59.78;99242.88;5069892;28;20029;-66
2021/12/27 03:40:15;;;;;;;5.88;2.92;;;;;;;-9.61;59.67;99248.91;5070614;28;20067;-65
2021/12/27 03:42:41;;;;;;;6.03;2.80;;;;;;;-9.65;59.60;99257.59;5070811;28;20432;-65
2021/12/27 03:45:08;;;;;;;6.05;2.63;;;;;;;-9.56;59.47;99254.06;5069289;28;20025;-67
2021/12/27 03:47:34;;;;;;;9.35;2.88;;;;;;;-9.60;59.51;99250.63;5070076;28;20569;-65
2021/12/27 03:50:00;;;;;;;6.57;2.80;;;;;;;-9.59;59.68;99251.50;5069717;28;20128;-65
2021/12/27 03:52:25;;;;;;;7.90;2.50;;;;;;;-9.62;59.91;99246.34;5070136;28;20036;-65
2021/12/27 03:54:51;;;;;;;5.60;2.90;;;;;;;-9.53;59.70;99262.66;5069977;28;20031;-65
2021/12/27 03:57:17;;;;;;;4.13;2.38;;;;;;;-9.48;59.55;99256.59;5070473;28;20033;-66
2021/12/27 04:02:13;;;;;;;6.90;3.25;;;;;;;-9.72;59.53;99238.63;5070457;28;20445;-65
2021/12/27 04:04:39;;;;;;;5.13;2.78;;;;;;;-9.57;59.32;99266.16;5070186;28;20032;-65
2021/12/27 04:07:07;;;;;;;4.75;2.58;;;;;;;-9.64;59.61;99248.06;5070195;28;20052;-65
2021/12/27 04:09:33;;;;;;;5.50;3.33;;;;;;;-9.43;59.46;99280.75;5071052;28;20048;-66
2021/12/27 04:11:58;;;;;;;5.68;3.05;;;;;;;-9.41;59.78;99286.78;5071597;28;20024;-64
2021/12/27 04:14:25;;;;;;;7.93;3.05;;;;;;;-9.34;59.30;99287.59;5069788;28;20028;-65
2021/12/27 04:16:52;;;;;;;5.25;2.78;;;;;;;-9.48;59.26;99291.16;5070017;28;20469;-64
2021/12/27 04:19:18;;;;;;;6.03;2.78;;;;;;;-9.47;59.84;99286.84;5070263;28;20024;-63
2021/12/27 04:21:43;;;;;;;7.72;2.72;;;;;;;-9.41;59.48;99297.16;5070027;28;20081;-63
2021/12/27 04:24:09;;;;;;;5.35;2.78;;;;;;;-9.41;59.55;99298.00;5069618;28;20025;-66
2021/12/27 04:26:34;;;;;;;8.50;3.03;;;;;;;-9.31;59.02;99303.13;5070029;28;20028;-65
2021/12/27 04:29:00;;;;;;;7.97;3.17;;;;;;;-9.44;59.20;99300.63;5070504;28;20082;-64
2021/12/27 04:31:25;;;;;;;6.80;3.30;;;;;;;-9.49;59.74;99304.97;5073492;28;20039;-65
2021/12/27 04:33:51;;;;;;;9.13;3.38;;;;;;;-9.54;59.58;99299.81;5073156;28;20089;-66
2021/12/27 04:36:16;;;;;;;6.07;3.25;;;;;;;-9.47;59.42;99302.38;5073336;28;20021;-64
2021/12/27 04:38:45;;;;;;;6.43;2.72;;;;;;;-9.47;59.65;99303.22;5073838;28;20028;-61
2021/12/27 04:41:14;;;;;;;7.18;3.17;;;;;;;-9.44;59.15;99313.56;5073852;28;20474;-66
2021/12/27 04:43:40;;;;;;;6.57;2.75;;;;;;;-9.51;59.29;99309.31;5073217;28;20352;-66
2021/12/27 04:46:05;;;;;;;5.50;2.83;;;;;;;-9.46;59.52;99306.69;5073313;28;20473;-64
2021/12/27 04:48:31;;;;;;;4.10;1.83;;;;;;;-9.38;59.40;99304.91;5073661;28;20509;-66
2021/12/27 04:50:57;;;;;;;6.10;2.97;;;;;;;-9.49;59.84;99333.50;5072891;28;20473;-66
2021/12/27 04:53:23;;;;;;;6.43;3.00;;;;;;;-9.59;59.78;99324.06;5072776;28;20032;-65
2021/12/27 04:55:49;;;;;;;6.53;3.13;;;;;;;-9.65;59.99;99324.97;5072707;28;20035;-65
2021/12/27 04:58:17;;;;;;;5.63;3.42;;;;;;;-9.61;59.84;99331.84;5072560;28;20033;-66
2021/12/27 05:00:44;;;;;;;8.05;2.95;;;;;;;-9.58;59.47;99326.63;5073075;28;20117;-63
2021/12/27 05:03:09;;;;;;;7.65;3.03;;;;;;;-9.64;59.54;99331.88;5073074;28;20017;-64
2021/12/27 05:05:37;;;;;;;6.72;3.50;;;;;;;-9.70;59.85;99332.75;5072424;28;20501;-66
2021/12/27 05:08:03;;;;;;;5.35;2.97;;;;;;;-9.62;59.89;99334.47;5073074;28;20040;-67
2021/12/27 05:10:30;;;;;;;7.03;3.38;;;;;;;-9.54;59.56;99343.03;5070947;28;20046;-66
2021/12/27 05:12:56;;;;;;;8.23;2.42;;;;;;;-9.69;59.80;99338.81;5072628;28;20373;-67
2021/12/27 05:15:22;;;;;;;5.82;2.88;;;;;;;-9.62;59.69;99355.19;5072669;28;20090;-65
2021/12/27 05:17:48;;;;;;;7.35;3.25;;;;;;;-9.63;59.51;99361.25;5072174;28;20437;-66
2021/12/27 05:20:13;;;;;;;5.97;2.65;;;;;;;-9.68;59.75;99367.28;5072114;28;20430;-66
2021/12/27 05:22:40;;;;;;;5.35;2.53;;;;;;;-9.71;59.75;99366.47;5072056;28;20493;-65
2021/12/27 05:25:07;;;;;;;6.32;3.05;;;;;;;-9.70;59.63;99357.81;5071850;28;20185;-64
2021/12/27 05:27:33;;;;;;;5.90;2.75;;;;;;;-9.69;59.39;99365.56;5072494;28;20040;-66
2021/12/27 05:29:59;;;;;;;6.25;3.03;;;;;;;-9.67;59.67;99370.75;5072693;28;20032;-66
2021/12/27 05:32:24;;;;;;;4.82;2.75;;;;;;;-9.63;59.87;99380.22;5072103;28;20032;-66
2021/12/27 05:34:50;;;;;;;5.60;3.00;;;;;;;-9.82;59.77;99348.38;5071793;28;20462;-66
2021/12/27 05:37:15;;;;;;;5.05;2.33;;;;;;;-9.58;59.95;99378.47;5080216;28;20375;-67
2021/12/27 05:39:41;;;;;;;6.95;2.97;;;;;;;-9.58;59.74;99388.84;5080687;28;20044;-65
2021/12/27 05:42:08;;;;;;;7.25;2.95;;;;;;;-9.61;59.25;99403.56;5078054;28;20039;-64
2021/12/27 05:44:33;;;;;;;5.30;2.92;;;;;;;-9.64;59.72;99395.78;5079646;28;20035;-66
2021/12/27 05:46:59;;;;;;;5.75;2.92;;;;;;;-9.56;59.56;99412.16;5080390;28;20040;-65
2021/12/27 05:49:24;;;;;;;6.53;3.10;;;;;;;-9.48;59.44;99420.75;5079253;28;20031;-65
2021/12/27 05:51:52;;;;;;;5.60;2.85;;;;;;;-9.53;59.24;99418.16;5080467;28;20027;-65
2021/12/27 05:54:20;;;;;;;4.15;2.55;;;;;;;-9.62;59.65;99427.75;5078356;28;20059;-64
2021/12/27 05:56:47;;;;;;;5.00;2.60;;;;;;;-9.52;59.33;99429.41;5079607;28;20052;-65
2021/12/27 05:59:13;;;;;;;8.27;3.33;;;;;;;-9.52;59.32;99425.09;5080248;28;20040;-64
2021/12/27 06:01:40;;;;;;;6.47;3.17;;;;;;;-9.72;59.46;99391.50;5077723;28;20032;-65
2021/12/27 06:04:05;;;;;;;6.88;2.63;;;;;;;-9.42;59.54;99440.59;5079924;28;20024;-65
2021/12/27 06:06:31;;;;;;;5.13;2.97;;;;;;;-9.47;59.45;99429.41;5079006;28;20043;-67
2021/12/27 06:08:56;;;;;;;5.15;2.50;;;;;;;-9.41;58.96;99440.56;5079816;28;20058;-65
2021/12/27 06:11:22;;;;;;;7.00;3.65;;;;;;;-9.60;59.79;99449.34;5079104;28;20473;-65
2021/12/27 06:13:48;;;;;;;6.90;3.20;;;;;;;-9.67;59.96;99443.31;5079548;28;20036;-65
2021/12/27 06:16:13;;;;;;;6.45;3.40;;;;;;;-9.63;59.41;99449.34;5070997;28;20429;-63
2021/12/27 06:18:39;;;;;;;7.07;3.30;;;;;;;-9.58;59.28;99450.19;5071536;28;20116;-64
2021/12/27 06:21:04;;;;;;;6.88;3.20;;;;;;;-9.67;59.43;99444.16;5071189;28;20028;-66
2021/12/27 06:23:31;;;;;;;7.72;3.17;;;;;;;-9.63;59.71;99455.38;5072506;28;20040;-65
2021/12/27 06:25:57;;;;;;;7.03;2.88;;;;;;;-9.57;59.45;99462.28;5074207;28;20115;-64
2021/12/27 06:28:23;;;;;;;6.03;2.65;;;;;;;-9.68;59.07;99428.63;5068461;28;20439;-66
2021/12/27 06:30:48;;;;;;;5.28;2.60;;;;;;;-9.52;59.21;99468.28;5071210;28;20108;-64
2021/12/27 06:33:14;;;;;;;6.85;3.15;;;;;;;-9.52;59.56;99466.56;5071706;28;20028;-64
2021/12/27 06:35:40;;;;;;;5.35;2.95;;;;;;;-9.58;58.86;99463.16;5070297;28;20052;-65
2021/12/27 06:38:05;;;;;;;7.57;3.28;;;;;;;-9.63;59.57;99451.94;5070801;28;20039;-64
2021/12/27 06:40:31;;;;;;;8.07;3.10;;;;;;;-9.42;59.35;99493.28;5071063;28;20091;-65
2021/12/27 06:42:58;;;;;;;6.55;3.20;;;;;;;-9.36;59.24;99482.03;5070178;28;20051;-65
2021/12/27 06:45:24;;;;;;;6.53;3.28;;;;;;;-9.52;59.04;99452.75;5070882;28;20450;-66
2021/12/27 06:47:50;;;;;;;7.82;3.35;;;;;;;-9.30;58.82;99486.34;5069341;28;20132;-65
2021/12/27 06:50:17;;;;;;;8.43;3.13;;;;;;;-9.32;58.60;99490.66;5070426;28;20049;-65
2021/12/27 06:52:43;;;;;;;6.88;3.38;;;;;;;-9.30;58.34;99475.97;5069305;28;20041;-65
2021/12/27 06:55:10;;;;;;;7.65;3.33;;;;;;;-9.48;58.26;99467.41;5068906;28;20037;-68
2021/12/27 06:57:36;;;;;;;7.95;3.50;;;;;;;-9.35;58.59;99473.38;5065320;28;20085;-66
2021/12/27 07:00:07;;;;;;;7.80;3.20;;;;;;;-9.25;58.52;99481.97;5067164;28;20116;-64
2021/12/27 07:02:33;;;;;;;6.97;3.75;;;;;;;-9.21;58.46;99486.28;5065519;28;20478;-66
2021/12/27 07:04:59;;;;;;;6.45;3.22;;;;;;;-9.16;58.27;99478.47;5060551;28;20070;-64
2021/12/27 07:07:24;;;;;;;8.05;3.45;;;;;;;-9.25;58.09;99482.84;5064635;28;20024;-65
2021/12/27 07:09:50;;;;;;;7.35;3.13;;;;;;;-9.41;58.22;99448.34;5069003;28;20427;-66
2021/12/27 07:12:17;;;;;;;6.00;3.35;;;;;;;-9.25;58.38;99489.75;5070115;28;20082;-65
2021/12/27 07:14:43;;;;;;;7.43;3.08;;;;;;;-9.24;58.44;99499.25;5070300;28;20533;-66
2021/12/27 07:17:09;;;;;;;8.95;3.30;;;;;;;-9.21;58.54;99485.44;5070592;28;20032;-67
2021/12/27 07:19:34;;;;;;;6.72;3.60;;;;;;;-9.21;58.54;99491.47;5070121;28;20056;-64
2021/12/27 07:22:00;;;;;;;8.25;3.30;;;;;;;-9.35;58.64;99464.75;5070415;28;20056;-65
2021/12/27 07:24:26;;;;;;;9.65;3.95;;;;;;;-9.00;57.73;99495.69;5069582;28;20025;-65
2021/12/27 07:26:52;;;;;;;9.05;3.08;;;;;;;-9.12;58.31;99490.56;5070129;28;20020;-65
2021/12/27 07:29:19;;;;;;;6.22;3.10;;;;;;;-9.31;58.22;99456.09;5069815;28;20470;-65
2021/12/27 07:31:44;;;;;;;10.38;3.55;;;;;;;-9.04;58.04;99503.47;5069473;28;20055;-63
2021/12/27 07:34:11;;;;;;;6.65;3.33;;;;;;;-9.00;57.63;99516.44;5069736;28;20481;-65
2021/12/27 07:36:36;;;;;;;7.15;3.30;;;;;;;-8.91;57.40;99515.53;5067702;28;20535;-66
2021/12/27 07:39:02;;;;;;;6.97;3.65;;;;;;;-8.79;57.28;99524.97;5059592;28;20029;-65
2021/12/27 07:41:28;;;;;;;7.85;3.53;;;;;;;-8.68;56.68;99515.34;5063905;28;20039;-65
2021/12/27 07:43:55;;;;;;;6.20;3.22;;;;;;;-8.57;56.69;99517.88;5064344;28;20028;-66
2021/12/27 07:46:21;;;;;;;7.70;3.40;;;;;;;-8.48;56.35;99519.50;5062741;28;20138;-67
2021/12/27 07:48:46;;;;;;;7.43;4.00;;;;;;;-8.47;56.10;99520.34;5059566;28;20437;-72
2021/12/27 07:51:12;;;;;;;5.72;3.03;;;;;;;-8.59;56.25;99511.84;5071315;28;20044;-70
2021/12/27 07:53:37;;;;;;;6.03;3.22;;;;;;;-8.49;56.50;99532.53;5066277;28;20111;-66
2021/12/27 07:56:03;;;;;;;7.15;3.45;;;;;;;-8.67;56.26;99498.91;5068739;28;20033;-70
2021/12/27 07:58:28;;;;;;;6.03;3.20;;;;;;;-8.44;56.46;99544.56;5070443;28;20473;-72
2021/12/27 08:00:54;;;;;;;8.23;3.53;;;;;;;-8.42;56.22;99536.78;5068094;28;20389;-73
2021/12/27 08:03:21;;;;;;;6.45;3.25;;;;;;;-8.32;55.91;99545.34;5063703;28;20033;-74
2021/12/27 08:05:47;;;;;;;6.43;3.08;;;;;;;-8.26;56.00;99553.94;5067785;28;20240;-73
2021/12/27 08:08:13;;;;;;;6.63;3.25;;;;;;;-8.40;55.87;99522.06;5072237;28;20039;-67
2021/12/27 08:10:38;;;;;;;7.35;3.55;;;;;;;-8.20;55.43;99560.84;5073125;28;20021;-71
2021/12/27 08:13:04;;;;;;;8.20;3.45;;;;;;;-8.15;55.73;99550.41;5073140;28;20021;-69
2021/12/27 08:15:30;;;;;;;11.88;3.47;;;;;;;-8.15;54.93;99556.47;5071371;28;20048;-71
2021/12/27 08:17:55;;;;;;;6.72;3.42;;;;;;;-8.13;55.62;99548.66;5070299;28;20024;-72
2021/12/27 08:20:21;;;;;;;7.15;3.53;;;;;;;-8.34;55.59;99521.13;5073337;28;20027;-72
2021/12/27 08:22:47;;;;;;;6.15;2.95;;;;;;;-8.14;55.37;99555.56;5073469;28;20440;-71
2021/12/27 08:25:13;;;;;;;6.97;3.38;;;;;;;-8.13;55.40;99556.47;5073237;28;20043;-72
2021/12/27 08:27:40;;;;;;;7.13;3.53;;;;;;;-8.09;55.10;99555.53;5073996;28;20052;-72
2021/12/27 08:30:07;;;;;;;9.50;3.92;;;;;;;-8.27;55.05;99528.84;5074348;28;20103;-73
2021/12/27 08:32:34;;;;;;;6.22;3.22;;;;;;;-8.05;54.96;99557.25;5069768;28;20028;-71
2021/12/27 08:35:02;;;;;;;7.65;3.30;;;;;;;-7.90;54.75;99548.44;5073680;28;20336;-73
2021/12/27 08:37:31;;;;;;;9.43;3.33;;;;;;;-7.95;54.66;99550.22;5092816;28;20092;-69
2021/12/27 08:39:57;;;;;;;7.25;3.70;;;;;;;-8.03;54.80;99554.63;5089812;28;20094;-73
2021/12/27 08:42:23;;;;;;;7.60;3.38;;;;;;;-8.09;55.07;99537.38;5069312;28;20033;-72
2021/12/27 08:44:49;;;;;;;8.32;3.78;;;;;;;-8.09;54.97;99545.16;5072992;28;20039;-70
2021/12/27 08:47:15;;;;;;;6.45;3.33;;;;;;;-8.08;54.79;99552.94;5072272;28;20131;-70
2021/12/27 08:49:42;;;;;;;6.80;3.13;;;;;;;-8.11;55.04;99544.31;5073123;28;20462;-72
2021/12/27 08:52:07;;;;;;;9.93;3.92;;;;;;;-8.10;55.13;99556.44;5073602;28;20028;-73
2021/12/27 08:54:33;;;;;;;7.88;3.83;;;;;;;-8.19;55.05;99543.53;5071282;28;20346;-72
2021/12/27 08:56:59;;;;;;;8.18;3.22;;;;;;;-8.10;55.27;99546.03;5071846;28;20418;-72
2021/12/27 08:59:24;;;;;;;7.43;3.63;;;;;;;-8.14;55.18;99523.56;5072565;28;20040;-73
2021/12/27 09:01:50;;;;;;;7.85;3.70;;;;;;;-8.06;55.49;99558.13;5072525;28;20087;-69
2021/12/27 09:04:16;;;;;;;8.25;3.70;;;;;;;-8.13;55.35;99553.84;5073526;28;20044;-69
2021/12/27 09:06:41;;;;;;;8.25;4.03;;;;;;;-8.11;55.60;99550.34;5062849;28;20067;-70
2021/12/27 09:09:07;;;;;;;6.75;3.30;;;;;;;-8.12;55.64;99548.63;5071345;28;20025;-69
2021/12/27 09:11:32;;;;;;;8.20;3.58;;;;;;;-8.13;55.36;99546.91;5072794;28;20073;-70
2021/12/27 09:13:58;;;;;;;11.13;4.05;;;;;;;-8.19;55.44;99549.56;5072803;28;20029;-70
2021/12/27 09:16:24;;;;;;;7.85;3.83;;;;;;;-8.16;55.56;99546.94;5072240;28;20028;-69
2021/12/27 09:18:49;;;;;;;8.80;3.92;;;;;;;-8.22;55.79;99547.84;5072660;28;20028;-71
2021/12/27 09:21:15;;;;;;;9.23;4.13;;;;;;;-8.18;55.67;99553.88;5072714;28;20036;-67
2021/12/27 09:23:40;;;;;;;7.68;3.83;;;;;;;-8.31;55.60;99540.16;5072109;28;20346;-72
2021/12/27 09:26:06;;;;;;;7.57;4.13;;;;;;;-8.29;55.83;99561.75;5058782;28;20028;-71
2021/12/27 09:28:32;;;;;;;7.05;3.88;;;;;;;-8.51;56.28;99529.97;5070216;28;20083;-71
2021/12/27 09:30:58;;;;;;;9.18;4.53;;;;;;;-8.33;56.05;99566.97;5072260;28;20394;-70
2021/12/27 09:33:24;;;;;;;11.30;4.45;;;;;;;-8.29;56.10;99568.72;5070517;28;20028;-70
2021/12/27 09:35:50;;;;;;;7.13;3.58;;;;;;;-8.28;56.37;99576.47;5072524;28;20495;-68
2021/12/27 09:38:16;;;;;;;9.77;3.80;;;;;;;-8.27;56.29;99562.63;5072549;28;20036;-69
2021/12/27 09:40:42;;;;;;;7.72;3.92;;;;;;;-8.24;56.49;99564.34;5069809;28;20054;-67
2021/12/27 09:43:08;;;;;;;8.07;3.80;;;;;;;-8.26;56.12;99572.13;5064150;28;20107;-69
2021/12/27 09:45:33;;;;;;;10.15;4.32;;;;;;;-8.23;56.26;99573.84;5070842;28;20032;-68
2021/12/27 09:47:59;;;;;;;8.13;3.88;;;;;;;-8.18;56.52;99568.63;5070216;28;20193;-69
2021/12/27 09:50:29;;;;;;;9.70;4.28;;;;;;;-8.18;56.37;99571.22;5069529;28;20425;-67
2021/12/27 09:52:57;;;;;;;10.80;4.43;;;;;;;-8.21;56.36;99565.16;5070169;28;20046;-67
2021/12/27 09:55:22;;;;;;;8.77;3.90;;;;;;;-8.25;56.78;99558.25;5069976;28;20472;-69
2021/12/27 09:57:48;;;;;;;8.32;4.32;;;;;;;-8.25;56.52;99568.66;5070863;28;20082;-68
2021/12/27 10:00:17;;;;;;;11.93;4.30;;;;;;;-8.26;56.86;99566.09;5071553;28;20039;-70
2021/12/27 10:02:45;;;;;;;9.30;4.47;;;;;;;-8.29;56.79;99574.75;5072197;28;20047;-67
2021/12/27 10:05:12;;;;;;;9.20;4.45;;;;;;;-8.28;57.27;99573.88;5072956;28;20063;-72
2021/12/27 10:07:41;;;;;;;11.93;4.35;;;;;;;-8.26;57.00;99572.13;5072277;28;20043;-69
2021/12/27 10:10:09;;;;;;;12.60;4.90;;;;;;;-8.28;57.09;99573.88;5070192;28;20036;-69
2021/12/27 10:12:36;;;;;;;9.35;4.03;;;;;;;-8.26;57.06;99577.31;5054351;28;20362;-71
2021/12/27 10:15:05;;;;;;;9.50;4.68;;;;;;;-8.21;57.28;99575.53;5071954;28;20119;-71
2021/12/27 10:17:33;;;;;;;11.32;4.97;;;;;;;-8.15;57.03;99584.19;5070978;28;20050;-68
2021/12/27 10:20:18;;;;;;;9.35;4.47;;;;;;;-8.09;57.16;99579.78;5071943;28;20032;-67
2021/12/27 10:22:52;;;;;;;10.55;4.82;;;;;;;-8.11;57.28;99578.09;5070394;28;20154;-68
2021/12/27 10:25:19;;;;;;;13.80;4.80;;;;;;;-8.01;57.25;99590.09;5070838;28;20086;-69
2021/12/27 10:27:47;;;;;;;10.90;4.65;;;;;;;-8.01;57.33;99584.91;5070908;28;20045;-70
2021/12/27 10:30:16;;;;;;;8.38;4.68;;;;;;;-7.95;57.69;99589.19;5071242;28;20020;-70
2021/12/27 10:32:43;;;;;;;7.78;4.13;;;;;;;-7.93;57.31;99583.13;5071156;28;20026;-70
2021/12/27 10:35:11;;;;;;;11.18;4.57;;;;;;;-7.89;57.21;99591.75;5071308;28;20032;-69
2021/12/27 10:37:38;;;;;;;9.05;4.68;;;;;;;-7.78;57.20;99589.91;5070638;28;20390;-70
2021/12/27 10:40:11;;;;;;;11.57;4.40;;;;;;;-7.73;57.17;99582.06;5069719;28;20021;-71
2021/12/27 10:42:45;;;;;;;9.75;4.75;;;;;;;-7.66;56.70;99583.75;5069671;28;20452;-69
2021/12/27 10:45:19;;;;;;;10.25;4.90;;;;;;;-7.64;56.66;99575.91;5071129;28;20039;-68
2021/12/27 10:47:52;;;;;;;12.75;5.05;;;;;;;-7.62;56.96;99579.34;5080432;28;20076;-68
2021/12/27 10:50:26;;;;;;;12.82;4.65;;;;;;;-7.60;56.52;99584.53;5081471;28;20524;-67
2021/12/27 10:52:54;;;;;;;9.77;4.72;;;;;;;-7.62;56.78;99594.94;5073550;28;20051;-69
2021/12/27 10:55:25;;;;;;;12.15;5.07;;;;;;;-7.70;56.73;99582.06;5071004;28;20029;-68
2021/12/27 10:57:52;;;;;;;9.02;4.70;;;;;;;-7.67;56.97;99592.41;5070754;28;20111;-67
2021/12/27 11:00:26;;;;;;;9.73;4.40;;;;;;;-7.69;57.40;99588.09;5071257;28;20430;-71
2021/12/27 11:02:52;;;;;;;11.13;4.90;;;;;;;-7.67;57.16;99595.00;5070881;28;20035;-74
2021/12/27 11:05:26;;;;;;;9.30;4.28;;;;;;;-7.61;57.45;99588.88;5070796;28;20182;-76
2021/12/27 11:07:54;;;;;;;9.77;5.28;;;;;;;-7.60;57.36;99593.19;5070885;28;20028;-69
2021/12/27 11:10:21;;;;;;;11.32;5.10;;;;;;;-7.57;57.25;99582.78;5070646;28;20032;-67
2021/12/27 11:12:48;;;;;;;8.93;4.93;;;;;;;-7.62;57.02;99568.94;5070829;28;20025;-71
2021/12/27 11:15:14;;;;;;;12.70;5.03;;;;;;;-7.57;57.42;99576.72;5071216;28;20028;-70
2021/12/27 11:17:40;;;;;;;9.93;4.72;;;;;;;-7.59;56.98;99588.88;5058688;28;20392;-68
2021/12/27 11:20:08;;;;;;;10.00;4.75;;;;;;;-7.60;57.64;99587.16;5070657;28;20093;-71
2021/12/27 11:22:39;;;;;;;11.20;4.38;;;;;;;-7.61;57.34;99601.03;5060314;28;20107;-69
2021/12/27 11:25:07;;;;;;;12.18;4.97;;;;;;;-7.71;57.33;99584.66;5050428;28;20569;-71
2021/12/27 11:27:35;;;;;;;10.25;4.53;;;;;;;-7.81;57.51;99579.56;5059203;28;20078;-73
2021/12/27 11:30:09;;;;;;;8.55;4.75;;;;;;;-7.68;57.93;99595.91;5070190;28;20386;-76
2021/12/27 11:32:36;;;;;;;11.10;4.32;;;;;;;-7.70;58.09;99604.56;5070951;28;20032;-71
2021/12/27 11:35:09;;;;;;;9.18;4.90;;;;;;;-7.75;58.18;99604.59;5068304;28;20031;-69